Vermont, Illinois
Current Conditions -  °F | °C
As of 8:35 AM on Sunday 23 Nov 2014 (Local Time) from KMQB Reporting Station
Broken Clouds Broken Clouds  
Wind Chill: 45°   Ceiling: 9500
Heat Index: 49°   Visibility: 10mi
Dew Point: 47°   Wind: 10mph
Humidity: 93%   Direction: 150°SSE
Pressure: 29.66"   Gusts: NA
Location:  40.29°N, 90.43°W
Report Text: KMQB 231435Z AUTO 15009KT 10SM BKN095 10/09 A2966 RMK AO2 T00950085
Loading
Personal Weather Stations






























Interactive Weather Map New forecast layout! Learn more

10-Day Weather Forecast

Advertisements
Track Severe Weather on mobile